createdAt,value
2023-07-24T00:00:16.491Z,20.87
2023-07-24T00:02:45.285Z,6.87
2023-07-24T00:05:15.636Z,19.23
2023-07-24T00:08:03.205Z,7.90
2023-07-24T00:10:32.202Z,7.30
2023-07-24T00:13:02.658Z,7.07
2023-07-24T00:15:31.637Z,7.37
2023-07-24T00:18:00.366Z,8.50
2023-07-24T00:20:31.058Z,8.87
2023-07-24T00:22:59.855Z,9.47
2023-07-24T00:25:31.557Z,7.20
2023-07-24T00:28:00.581Z,7.93
2023-07-24T00:30:29.961Z,6.23
2023-07-24T00:32:58.834Z,8.53
2023-07-24T00:35:28.046Z,7.30
2023-07-24T00:37:58.773Z,7.47
2023-07-24T00:40:27.634Z,10.40
2023-07-24T00:42:56.759Z,9.03
2023-07-24T00:45:25.612Z,7.97
2023-07-24T00:47:54.416Z,8.80
2023-07-24T00:50:23.719Z,6.47
2023-07-24T00:52:52.460Z,7.07
2023-07-24T00:55:22.605Z,8.80
2023-07-24T00:57:52.395Z,8.87
2023-07-24T01:00:21.492Z,6.23
2023-07-24T01:02:51.331Z,10.83
2023-07-24T01:05:20.491Z,8.60
2023-07-24T01:07:49.809Z,7.00
2023-07-24T01:10:18.470Z,8.03
2023-07-24T01:12:54.154Z,10.03
2023-07-24T01:15:27.474Z,11.23
2023-07-24T01:18:02.635Z,7.00
2023-07-24T01:20:31.931Z,7.80
2023-07-24T01:23:15.382Z,8.17
2023-07-24T01:25:59.709Z,8.83
2023-07-24T01:28:28.826Z,8.93
2023-07-24T01:30:58.860Z,8.20
2023-07-24T01:33:27.663Z,9.63
2023-07-24T01:35:58.516Z,6.73
2023-07-24T01:38:30.069Z,9.03
2023-07-24T01:41:00.569Z,12.70
2023-07-24T01:43:29.580Z,10.90
2023-07-24T01:45:58.918Z,13.17
2023-07-24T01:48:27.612Z,12.83
2023-07-24T01:50:56.479Z,9.90
2023-07-24T01:53:25.071Z,9.13
2023-07-24T01:55:54.154Z,10.40
2023-07-24T01:58:24.406Z,7.13
2023-07-24T02:00:53.249Z,8.53
2023-07-24T02:03:22.148Z,9.60
2023-07-24T02:05:53.100Z,7.90
2023-07-24T02:08:21.793Z,8.67
2023-07-24T02:10:52.414Z,15.23
2023-07-24T02:13:20.944Z,18.70
2023-07-24T02:15:51.212Z,18.87
2023-07-24T02:18:20.033Z,19.87
2023-07-24T02:20:52.085Z,9.60
2023-07-24T02:23:20.800Z,6.63
2023-07-24T02:25:53.652Z,8.10
2023-07-24T02:28:22.113Z,8.20
2023-07-24T02:30:53.342Z,10.80
2023-07-24T02:33:22.194Z,12.10
2023-07-24T02:35:53.718Z,11.37
2023-07-24T02:38:22.308Z,9.80
2023-07-24T02:40:51.374Z,9.00
2023-07-24T02:43:20.643Z,10.07
2023-07-24T02:45:54.408Z,8.27
2023-07-24T02:48:22.984Z,7.60
2023-07-24T02:50:52.310Z,8.83
2023-07-24T02:53:20.958Z,10.77
2023-07-24T02:56:08.251Z,10.23
2023-07-24T02:58:37.112Z,13.53
2023-07-24T03:01:08.468Z,21.87
2023-07-24T03:03:37.775Z,16.47
2023-07-24T03:06:06.674Z,9.40
2023-07-24T03:08:35.524Z,11.10
2023-07-24T03:11:07.218Z,11.93
2023-07-24T03:13:36.202Z,11.50
2023-07-24T03:16:04.887Z,11.37
2023-07-24T03:18:35.536Z,10.97
2023-07-24T03:21:04.356Z,11.70
2023-07-24T03:23:33.270Z,11.30
2023-07-24T03:26:01.964Z,10.40
2023-07-24T03:28:30.696Z,8.30
2023-07-24T03:30:59.734Z,6.97
2023-07-24T03:33:28.633Z,8.90
2023-07-24T03:35:59.043Z,9.03
2023-07-24T03:38:27.541Z,13.80
2023-07-24T03:40:56.290Z,14.20
2023-07-24T03:43:25.982Z,8.13
2023-07-24T03:45:54.852Z,11.10
2023-07-24T03:48:23.907Z,10.43
2023-07-24T03:50:52.530Z,9.83
2023-07-24T03:53:22.918Z,8.57
2023-07-24T03:55:52.231Z,9.40
2023-07-24T03:58:21.272Z,10.23
2023-07-24T04:00:51.394Z,7.27
2023-07-24T04:03:19.866Z,10.90
2023-07-24T04:05:48.589Z,10.67
2023-07-24T04:08:17.792Z,8.70
2023-07-24T04:10:48.131Z,8.07
2023-07-24T04:13:17.347Z,9.67
2023-07-24T04:15:46.475Z,9.13
2023-07-24T04:18:35.467Z,7.90
2023-07-24T04:21:04.431Z,9.83
2023-07-24T04:23:33.507Z,9.03
2023-07-24T04:26:07.640Z,9.23
2023-07-24T04:28:38.126Z,8.47
2023-07-24T04:31:12.030Z,8.97
2023-07-24T04:33:41.318Z,7.97
2023-07-24T04:36:12.653Z,7.70
2023-07-24T04:38:41.916Z,10.10
2023-07-24T04:41:12.186Z,9.07
2023-07-24T04:43:41.056Z,8.20
2023-07-24T04:46:09.696Z,8.40
2023-07-24T04:48:39.077Z,8.40
2023-07-24T04:51:11.788Z,10.10
2023-07-24T04:53:40.441Z,9.40
2023-07-24T04:56:13.235Z,8.70
2023-07-24T04:58:44.671Z,9.47
2023-07-24T05:01:13.364Z,8.80
2023-07-24T05:03:42.206Z,8.20
2023-07-24T05:06:13.667Z,11.57
2023-07-24T05:08:45.310Z,8.87
2023-07-24T05:11:15.575Z,9.63
2023-07-24T05:13:44.540Z,9.30
2023-07-24T05:16:14.461Z,10.37
2023-07-24T05:18:43.638Z,9.37
2023-07-24T05:21:12.485Z,10.50
2023-07-24T05:23:41.206Z,18.07
2023-07-24T05:26:09.726Z,9.97
2023-07-24T05:28:39.867Z,10.53
2023-07-24T05:31:09.442Z,10.97
2023-07-24T05:33:38.205Z,9.50
2023-07-24T05:36:10.146Z,14.20
2023-07-24T05:38:39.083Z,11.87
2023-07-24T05:41:26.214Z,8.90
2023-07-24T05:43:56.808Z,11.77
2023-07-24T05:46:25.668Z,10.60
2023-07-24T05:48:54.889Z,9.00
2023-07-24T05:51:23.598Z,11.50
2023-07-24T05:53:52.402Z,13.07
2023-07-24T05:56:21.911Z,14.73
2023-07-24T05:58:52.236Z,10.97
2023-07-24T06:01:22.384Z,10.67
2023-07-24T06:03:51.191Z,10.60
2023-07-24T06:06:20.857Z,9.10
2023-07-24T06:08:49.768Z,11.80
2023-07-24T06:11:18.882Z,10.30
2023-07-24T06:13:47.445Z,13.37
2023-07-24T06:16:15.965Z,14.97
2023-07-24T06:18:46.266Z,15.80
2023-07-24T06:21:14.918Z,14.60
2023-07-24T06:23:43.733Z,16.97
2023-07-24T06:26:12.420Z,14.20
2023-07-24T06:28:41.189Z,15.50
2023-07-24T06:31:10.044Z,15.57
2023-07-24T06:33:38.915Z,15.57
2023-07-24T06:36:13.750Z,11.30
2023-07-24T06:39:00.082Z,11.00
2023-07-24T06:41:30.801Z,8.43
2023-07-24T06:43:59.547Z,12.40
2023-07-24T06:46:28.323Z,9.77
2023-07-24T06:48:57.730Z,9.40
2023-07-24T06:51:27.552Z,13.90
2023-07-24T06:53:56.393Z,10.90
2023-07-24T06:56:24.945Z,12.53
2023-07-24T06:58:54.715Z,12.47
2023-07-24T07:01:23.444Z,13.93
2023-07-24T07:03:52.918Z,12.80
2023-07-24T07:08:54.831Z,14.27
2023-07-24T07:11:23.729Z,14.67
2023-07-24T07:13:52.752Z,13.10
2023-07-24T07:16:24.170Z,11.33
2023-07-24T07:18:52.726Z,13.50
2023-07-24T07:21:22.259Z,12.37
2023-07-24T07:23:50.821Z,12.60
2023-07-24T07:26:21.919Z,12.60
2023-07-24T07:28:51.030Z,12.37
2023-07-24T07:31:19.461Z,10.90
2023-07-24T07:33:48.179Z,11.80
2023-07-24T07:36:16.994Z,13.57
2023-07-24T07:38:46.003Z,9.00
2023-07-24T07:41:15.186Z,10.30
2023-07-24T07:43:45.889Z,11.37
2023-07-24T07:46:16.088Z,10.80
2023-07-24T07:48:46.400Z,11.13
2023-07-24T07:51:17.928Z,14.60
2023-07-24T07:53:47.271Z,13.40
2023-07-24T07:56:18.073Z,10.53
2023-07-24T07:58:50.625Z,9.13
2023-07-24T08:01:20.378Z,13.03
2023-07-24T08:03:50.102Z,10.70
2023-07-24T08:06:45.475Z,11.90
2023-07-24T08:09:14.299Z,9.50
2023-07-24T08:11:43.873Z,9.63
2023-07-24T08:14:13.859Z,11.43
2023-07-24T08:16:43.016Z,13.70
2023-07-24T08:19:11.796Z,11.53
2023-07-24T08:21:41.665Z,11.67
2023-07-24T08:24:10.875Z,10.60
2023-07-24T08:26:40.047Z,12.20
2023-07-24T08:29:09.907Z,11.73
2023-07-24T08:31:40.164Z,10.90
2023-07-24T08:34:09.606Z,9.60
2023-07-24T08:36:39.993Z,10.70
2023-07-24T08:39:09.075Z,15.73
2023-07-24T08:41:40.006Z,10.40
2023-07-24T08:44:11.074Z,11.30
2023-07-24T08:46:42.857Z,12.13
2023-07-24T08:49:14.828Z,13.00
2023-07-24T08:51:44.267Z,13.30
2023-07-24T08:54:13.596Z,15.90
2023-07-24T08:56:43.151Z,10.40
2023-07-24T08:59:11.786Z,9.03
2023-07-24T09:01:42.131Z,11.27
2023-07-24T09:04:10.880Z,10.30
2023-07-24T09:06:43.726Z,12.53
2023-07-24T09:09:16.672Z,10.90
2023-07-24T09:11:49.658Z,10.80
2023-07-24T09:14:25.984Z,8.67
2023-07-24T09:17:07.286Z,12.40
2023-07-24T09:19:39.348Z,9.30
2023-07-24T09:22:14.016Z,11.97
2023-07-24T09:24:53.460Z,11.07
2023-07-24T09:27:22.917Z,10.67
2023-07-24T09:29:51.438Z,11.03
2023-07-24T09:32:29.591Z,10.07
2023-07-24T09:34:58.302Z,11.17
2023-07-24T09:37:29.071Z,16.77
2023-07-24T09:40:00.234Z,12.30
2023-07-24T09:42:33.571Z,11.27
2023-07-24T09:45:03.276Z,10.10
2023-07-24T09:47:55.945Z,9.97
2023-07-24T09:50:26.810Z,10.93
2023-07-24T09:52:56.999Z,10.50
2023-07-24T09:55:30.476Z,14.17
2023-07-24T09:57:59.747Z,13.80
2023-07-24T10:00:28.710Z,9.97
2023-07-24T10:03:01.044Z,11.23
2023-07-24T10:05:30.835Z,10.17
2023-07-24T10:07:59.951Z,11.73
2023-07-24T10:10:52.380Z,9.90
2023-07-24T10:13:22.238Z,12.67
2023-07-24T10:15:51.250Z,8.93
2023-07-24T10:18:29.257Z,9.07
2023-07-24T10:21:03.073Z,9.20
2023-07-24T10:23:32.387Z,9.93
2023-07-24T10:26:06.005Z,11.90
2023-07-24T10:28:36.433Z,12.23
2023-07-24T10:31:07.248Z,11.97
2023-07-24T10:33:42.576Z,9.23
2023-07-24T10:36:14.520Z,13.33
2023-07-24T10:38:47.234Z,10.87
2023-07-24T10:41:15.819Z,12.27
2023-07-24T10:43:49.886Z,10.33
2023-07-24T10:46:20.498Z,12.17
2023-07-24T10:48:53.228Z,11.70
2023-07-24T10:51:22.752Z,9.43
2023-07-24T10:53:52.059Z,10.63
2023-07-24T10:56:21.712Z,9.73
2023-07-24T10:58:50.681Z,11.20
2023-07-24T11:01:20.522Z,9.73
2023-07-24T11:03:52.533Z,9.37
2023-07-24T11:06:23.427Z,11.70
2023-07-24T11:08:57.717Z,14.00
2023-07-24T11:11:31.154Z,10.97
2023-07-24T11:14:01.530Z,13.73
2023-07-24T11:16:31.650Z,9.83
2023-07-24T11:19:02.423Z,9.73
2023-07-24T11:21:32.103Z,10.93
2023-07-24T11:24:03.073Z,11.57
2023-07-24T11:26:33.957Z,9.53
2023-07-24T11:29:03.983Z,9.70
2023-07-24T11:31:40.669Z,10.93
2023-07-24T11:34:11.902Z,12.20
2023-07-24T11:36:41.601Z,14.53
2023-07-24T11:39:11.690Z,12.70
2023-07-24T11:41:43.562Z,10.80
2023-07-24T11:44:13.078Z,13.27
2023-07-24T11:46:42.271Z,14.60
2023-07-24T11:49:18.332Z,13.40
2023-07-24T11:51:48.196Z,13.00
2023-07-24T11:54:17.296Z,13.20
2023-07-24T11:56:46.838Z,11.43
2023-07-24T11:59:18.118Z,11.50
2023-07-24T12:01:49.485Z,13.60
2023-07-24T12:04:21.387Z,12.17
2023-07-24T12:06:51.788Z,12.60
2023-07-24T12:09:21.823Z,14.87
2023-07-24T12:11:54.946Z,13.37
2023-07-24T12:14:24.816Z,11.87
2023-07-24T12:17:04.621Z,12.00
2023-07-24T12:19:38.073Z,16.03
2023-07-24T12:22:08.891Z,13.97
2023-07-24T12:24:38.749Z,14.00
2023-07-24T12:27:08.856Z,13.90
2023-07-24T12:29:38.910Z,15.40
2023-07-24T12:32:10.389Z,15.80
2023-07-24T12:34:41.176Z,13.37
2023-07-24T12:37:30.349Z,13.77
2023-07-24T12:40:00.980Z,13.63
2023-07-24T12:42:31.313Z,13.27
2023-07-24T12:45:01.677Z,14.20
2023-07-24T12:47:32.597Z,13.00
2023-07-24T12:50:07.683Z,12.80
2023-07-24T12:52:38.699Z,13.13
2023-07-24T12:55:10.870Z,15.00
2023-07-24T12:57:41.179Z,12.97
2023-07-24T13:00:12.860Z,13.80
2023-07-24T13:02:44.242Z,15.40
2023-07-24T13:05:16.572Z,14.70
2023-07-24T13:07:47.997Z,13.07
2023-07-24T13:10:18.571Z,15.13
2023-07-24T13:12:50.757Z,13.97
2023-07-24T13:15:21.162Z,12.80
2023-07-24T13:17:52.769Z,13.93
2023-07-24T13:20:24.730Z,12.83
2023-07-24T13:22:55.961Z,12.93
2023-07-24T13:25:25.999Z,18.67
2023-07-24T13:27:56.459Z,12.90
2023-07-24T13:30:27.233Z,14.80
2023-07-24T13:32:57.652Z,10.23
2023-07-24T13:35:29.965Z,11.50
2023-07-24T13:38:00.727Z,14.17
2023-07-24T13:40:30.579Z,13.03
2023-07-24T13:43:01.126Z,14.20
2023-07-24T13:45:31.658Z,10.90
2023-07-24T13:48:02.752Z,13.87
2023-07-24T13:50:34.415Z,15.90
2023-07-24T13:53:05.027Z,14.87
2023-07-24T13:55:35.736Z,10.23
2023-07-24T13:58:06.311Z,12.83
2023-07-24T14:00:35.574Z,12.50
2023-07-24T14:03:06.260Z,13.20
2023-07-24T14:05:38.804Z,13.60
2023-07-24T14:08:10.351Z,12.20
2023-07-24T14:10:40.958Z,15.10
2023-07-24T14:13:10.935Z,14.60
2023-07-24T14:15:46.837Z,22.60
2023-07-24T14:18:16.408Z,14.27
2023-07-24T14:20:49.021Z,12.53
2023-07-24T14:23:19.278Z,10.23
2023-07-24T14:25:48.700Z,12.60
2023-07-24T14:28:18.274Z,12.53
2023-07-24T14:30:48.579Z,10.77
2023-07-24T14:33:18.176Z,15.63
2023-07-24T14:35:48.847Z,11.30
2023-07-24T14:38:18.330Z,12.17
2023-07-24T14:40:47.525Z,11.80
2023-07-24T14:43:17.492Z,12.20
2023-07-24T14:45:49.997Z,16.47
2023-07-24T14:48:19.444Z,11.17
2023-07-24T14:50:54.480Z,12.03
2023-07-24T14:53:23.356Z,10.73
2023-07-24T14:55:52.461Z,15.37
2023-07-24T14:58:21.262Z,13.27
2023-07-24T15:00:50.855Z,16.07
2023-07-24T15:03:23.375Z,14.00
2023-07-24T15:05:54.136Z,11.50
2023-07-24T15:08:23.115Z,11.97
2023-07-24T15:10:52.131Z,15.73
2023-07-24T15:13:21.571Z,15.53
2023-07-24T15:15:50.556Z,11.60
2023-07-24T15:18:19.285Z,13.00
2023-07-24T15:20:47.726Z,13.77
2023-07-24T15:23:19.169Z,19.20
2023-07-24T15:25:48.739Z,15.67
2023-07-24T15:28:17.741Z,14.17
2023-07-24T15:30:49.984Z,14.00
2023-07-24T15:33:18.855Z,12.57
2023-07-24T15:35:48.207Z,18.90
2023-07-24T15:38:19.059Z,12.93
2023-07-24T15:40:48.211Z,13.90
2023-07-24T15:43:17.245Z,13.60
2023-07-24T15:45:46.295Z,20.50
2023-07-24T15:48:18.223Z,16.07
2023-07-24T15:50:51.935Z,21.90
2023-07-24T15:53:22.195Z,15.27
2023-07-24T15:55:51.245Z,13.33
2023-07-24T15:58:19.778Z,12.23
2023-07-24T16:00:48.858Z,13.30
2023-07-24T16:03:18.159Z,12.80
2023-07-24T16:05:46.906Z,12.20
2023-07-24T16:08:15.603Z,18.67
2023-07-24T16:10:46.284Z,11.73
2023-07-24T16:13:15.222Z,14.00
2023-07-24T16:15:46.851Z,15.70
2023-07-24T16:18:15.591Z,18.67
2023-07-24T16:20:47.582Z,13.17
2023-07-24T16:23:16.838Z,17.77
2023-07-24T16:25:47.576Z,15.60
2023-07-24T16:28:16.388Z,14.70
2023-07-24T16:30:45.917Z,13.20
2023-07-24T16:35:53.166Z,15.57
2023-07-24T16:38:23.715Z,14.33
2023-07-24T16:40:54.402Z,20.20
2023-07-24T16:43:23.912Z,14.07
2023-07-24T16:48:25.786Z,15.33
2023-07-24T16:50:54.879Z,13.80
2023-07-24T16:53:23.525Z,7.10
2023-07-24T16:55:53.739Z,12.13
2023-07-24T16:58:22.690Z,14.30
2023-07-24T17:00:51.421Z,5.33
2023-07-24T17:03:20.096Z,8.47
2023-07-24T17:05:49.259Z,10.17
2023-07-24T17:08:18.520Z,13.80
2023-07-24T17:10:48.705Z,12.30
2023-07-24T17:13:19.712Z,6.90
2023-07-24T17:15:49.414Z,6.30
2023-07-24T17:18:18.617Z,8.70
2023-07-24T17:20:47.756Z,6.50
2023-07-24T17:23:16.802Z,5.37
2023-07-24T17:25:48.472Z,5.70
2023-07-24T17:28:18.918Z,15.97
2023-07-24T17:30:48.410Z,10.20
2023-07-24T17:33:19.319Z,6.23
2023-07-24T17:35:50.577Z,7.07
2023-07-24T17:38:22.511Z,5.67
2023-07-24T17:40:51.821Z,8.77
2023-07-24T17:43:23.065Z,9.03
2023-07-24T17:45:52.463Z,9.23
2023-07-24T17:48:21.765Z,5.77
2023-07-24T17:50:50.690Z,4.97
2023-07-24T17:53:19.835Z,3.90
2023-07-24T17:55:50.400Z,5.60
2023-07-24T17:58:21.995Z,6.60
2023-07-24T18:00:52.421Z,7.73
2023-07-24T18:03:21.348Z,5.80
2023-07-24T18:05:50.104Z,7.57
2023-07-24T18:08:18.930Z,8.17
2023-07-24T18:10:47.736Z,7.27
2023-07-24T18:13:16.641Z,9.67
2023-07-24T18:15:50.099Z,8.33
2023-07-24T18:18:20.350Z,7.70
2023-07-24T18:20:49.825Z,9.47
2023-07-24T18:23:18.902Z,9.00
2023-07-24T18:25:47.927Z,8.40
2023-07-24T18:28:17.558Z,9.10
2023-07-24T18:30:48.516Z,11.10
2023-07-24T18:33:17.799Z,7.73
2023-07-24T18:35:46.336Z,8.93
2023-07-24T18:38:15.464Z,11.87
2023-07-24T18:40:44.297Z,8.53
2023-07-24T18:43:13.283Z,12.00
2023-07-24T18:45:43.715Z,10.10
2023-07-24T18:48:14.851Z,13.67
2023-07-24T18:50:44.761Z,7.73
2023-07-24T18:53:13.782Z,10.00
2023-07-24T18:55:42.973Z,9.80
2023-07-24T18:58:11.756Z,12.00
2023-07-24T19:00:44.584Z,10.67
2023-07-24T19:03:16.287Z,12.17
2023-07-24T19:05:46.958Z,10.23
2023-07-24T19:08:15.935Z,10.57
2023-07-24T19:10:45.071Z,11.30
2023-07-24T19:13:14.153Z,13.40
2023-07-24T19:15:43.699Z,11.40
2023-07-24T19:18:12.438Z,12.73
2023-07-24T19:20:42.707Z,11.77
2023-07-24T19:23:11.702Z,11.67
2023-07-24T19:25:40.460Z,13.17
2023-07-24T19:28:09.416Z,11.73
2023-07-24T19:30:42.484Z,15.23
2023-07-24T19:33:11.966Z,13.37
2023-07-24T19:35:42.706Z,11.17
2023-07-24T19:38:13.392Z,14.33
2023-07-24T19:40:42.614Z,11.70
2023-07-24T19:43:12.100Z,7.30
2023-07-24T19:45:42.004Z,7.73
2023-07-24T19:48:11.023Z,9.97
2023-07-24T19:50:40.141Z,9.70
2023-07-24T19:53:10.227Z,9.80
2023-07-24T19:55:39.706Z,11.50
2023-07-24T19:58:15.364Z,8.97
2023-07-24T20:00:56.635Z,10.17
2023-07-24T20:03:26.680Z,12.60
2023-07-24T20:05:59.825Z,10.03
2023-07-24T20:08:36.620Z,8.93
2023-07-24T20:11:08.246Z,8.07
2023-07-24T20:13:39.234Z,10.87
2023-07-24T20:16:08.763Z,12.30
2023-07-24T20:18:37.676Z,12.73
2023-07-24T20:21:06.468Z,16.30
2023-07-24T20:23:36.795Z,9.23
2023-07-24T20:26:05.904Z,13.20
2023-07-24T20:28:36.979Z,9.73
2023-07-24T20:31:06.939Z,9.37
2023-07-24T20:33:36.285Z,11.43
2023-07-24T20:36:08.509Z,7.70
2023-07-24T20:38:39.889Z,8.43
2023-07-24T20:41:09.133Z,10.63
2023-07-24T20:43:38.266Z,6.97
2023-07-24T20:46:13.147Z,8.30
2023-07-24T20:48:42.408Z,6.70
2023-07-24T20:51:18.687Z,6.97
2023-07-24T20:53:53.015Z,7.90
2023-07-24T20:56:22.981Z,9.20
2023-07-24T20:58:52.103Z,9.60
2023-07-24T21:01:23.005Z,8.40
2023-07-24T21:03:53.685Z,8.37
2023-07-24T21:06:22.900Z,7.07
2023-07-24T21:08:53.129Z,6.50
2023-07-24T21:11:21.994Z,8.37
2023-07-24T21:13:50.941Z,6.60
2023-07-24T21:16:19.762Z,6.50
2023-07-24T21:18:49.166Z,6.30
2023-07-24T21:21:18.833Z,6.80
2023-07-24T21:23:48.361Z,6.37
2023-07-24T21:26:20.556Z,7.33
2023-07-24T21:29:02.035Z,4.93
2023-07-24T21:31:31.142Z,8.73
2023-07-24T21:34:00.723Z,5.77
2023-07-24T21:36:29.311Z,8.23
2023-07-24T21:38:58.243Z,6.53
2023-07-24T21:41:30.811Z,5.80
2023-07-24T21:43:59.935Z,6.13
2023-07-24T21:46:28.506Z,4.63
2023-07-24T21:48:58.465Z,4.47
2023-07-24T21:51:27.252Z,5.30
2023-07-24T21:53:56.621Z,6.87
2023-07-24T21:56:25.435Z,4.93
2023-07-24T21:58:56.095Z,4.93
2023-07-24T22:01:24.775Z,6.60
2023-07-24T22:03:53.502Z,5.80
2023-07-24T22:06:22.285Z,5.67
2023-07-24T22:08:51.441Z,5.70
2023-07-24T22:11:20.620Z,7.07
2023-07-24T22:13:49.538Z,5.37
2023-07-24T22:16:19.735Z,7.47
2023-07-24T22:18:48.299Z,4.63
2023-07-24T22:21:17.058Z,4.23
2023-07-24T22:23:45.758Z,6.00
2023-07-24T22:26:14.853Z,8.57
2023-07-24T22:28:44.115Z,7.17
2023-07-24T22:31:13.734Z,5.10
2023-07-24T22:33:44.176Z,4.43
2023-07-24T22:36:13.120Z,4.77
2023-07-24T22:38:44.142Z,7.33
2023-07-24T22:41:13.585Z,8.90
2023-07-24T22:43:42.227Z,8.33
2023-07-24T22:46:30.177Z,6.07
2023-07-24T22:49:00.577Z,5.83
2023-07-24T22:51:30.078Z,4.13
2023-07-24T22:53:59.686Z,4.87
2023-07-24T22:56:28.489Z,6.43
2023-07-24T22:59:22.338Z,6.63
2023-07-24T23:01:52.007Z,4.80
2023-07-24T23:04:25.832Z,5.00
2023-07-24T23:06:55.850Z,5.13
2023-07-24T23:09:24.741Z,6.47
2023-07-24T23:11:53.609Z,4.23
2023-07-24T23:14:23.010Z,6.37
2023-07-24T23:16:52.118Z,13.97
2023-07-24T23:19:22.899Z,4.87
2023-07-24T23:21:51.712Z,5.10
2023-07-24T23:24:20.516Z,5.40
2023-07-24T23:26:49.315Z,7.60
2023-07-24T23:29:18.325Z,6.77
2023-07-24T23:31:47.331Z,6.20
2023-07-24T23:34:16.272Z,4.93
2023-07-24T23:36:46.420Z,5.57
2023-07-24T23:39:15.436Z,5.43
2023-07-24T23:41:44.069Z,5.13
2023-07-24T23:44:12.805Z,8.33
2023-07-24T23:46:43.173Z,8.30
2023-07-24T23:49:12.224Z,9.50
2023-07-24T23:51:40.996Z,4.83
2023-07-24T23:54:11.139Z,7.43
2023-07-24T23:56:39.907Z,4.37
2023-07-24T23:59:08.498Z,4.17
